createdAt,value
2022-12-29T00:00:09.479Z,6.40
2022-12-29T00:02:36.587Z,6.40
2022-12-29T00:05:03.982Z,6.40
2022-12-29T00:07:31.021Z,6.40
2022-12-29T00:09:57.897Z,6.40
2022-12-29T00:12:24.924Z,6.40
2022-12-29T00:15:10.567Z,6.30
2022-12-29T00:17:37.517Z,6.30
2022-12-29T00:20:23.407Z,6.40
2022-12-29T00:23:09.179Z,6.40
2022-12-29T00:25:56.048Z,6.30
2022-12-29T00:28:41.886Z,6.40
2022-12-29T00:31:32.063Z,6.40
2022-12-29T00:34:17.758Z,6.40
2022-12-29T00:36:45.941Z,6.40
2022-12-29T00:39:38.012Z,6.40
2022-12-29T00:42:21.625Z,6.50
2022-12-29T00:44:48.517Z,6.60
2022-12-29T00:47:15.625Z,6.60
2022-12-29T00:49:42.566Z,6.60
2022-12-29T00:52:12.456Z,6.70
2022-12-29T00:54:41.785Z,6.70
2022-12-29T00:57:10.676Z,6.70
2022-12-29T00:59:38.697Z,6.70
2022-12-29T01:02:06.315Z,6.70
2022-12-29T01:04:33.756Z,6.80
2022-12-29T01:07:00.740Z,6.80
2022-12-29T01:09:46.153Z,6.90
2022-12-29T01:12:13.369Z,6.80
2022-12-29T01:14:41.287Z,6.80
2022-12-29T01:17:08.253Z,6.90
2022-12-29T01:19:35.247Z,6.90
2022-12-29T01:22:02.586Z,6.90
2022-12-29T01:24:29.621Z,6.90
2022-12-29T01:26:56.648Z,6.90
2022-12-29T01:29:23.724Z,6.90
2022-12-29T01:31:51.244Z,6.90
2022-12-29T01:34:18.995Z,6.90
2022-12-29T01:36:45.959Z,6.90
2022-12-29T01:39:13.287Z,6.90
2022-12-29T01:41:41.542Z,6.90
2022-12-29T01:45:02.388Z,7.00
2022-12-29T01:47:34.927Z,6.90
2022-12-29T01:50:17.195Z,6.90
2022-12-29T01:52:58.135Z,6.90
2022-12-29T01:55:26.743Z,6.90
2022-12-29T01:57:55.277Z,6.90
2022-12-29T02:00:22.678Z,6.90
2022-12-29T02:02:55.412Z,7.00
2022-12-29T02:05:34.636Z,7.00
2022-12-29T02:08:03.110Z,7.10
2022-12-29T02:10:33.962Z,7.10
2022-12-29T02:13:01.124Z,7.10
2022-12-29T02:15:37.240Z,7.10
2022-12-29T02:18:27.526Z,7.10
2022-12-29T02:20:57.436Z,7.20
2022-12-29T02:23:52.916Z,7.20
2022-12-29T02:26:48.678Z,7.20
2022-12-29T02:29:26.747Z,7.20
2022-12-29T02:32:19.593Z,7.20
2022-12-29T02:35:09.032Z,7.20
2022-12-29T02:37:35.915Z,7.20
2022-12-29T02:40:17.011Z,7.20
2022-12-29T02:43:08.285Z,7.20
2022-12-29T02:45:45.202Z,7.30
2022-12-29T02:48:39.392Z,7.20
2022-12-29T02:51:19.199Z,7.20
2022-12-29T02:54:05.248Z,7.30
2022-12-29T02:56:32.333Z,7.30
2022-12-29T02:58:59.345Z,7.20
2022-12-29T03:01:37.878Z,7.10
2022-12-29T03:04:37.152Z,7.10
2022-12-29T03:07:31.739Z,7.20
2022-12-29T03:10:24.816Z,7.30
2022-12-29T03:13:24.233Z,7.30
2022-12-29T03:16:23.602Z,7.30
2022-12-29T03:19:16.706Z,7.40
2022-12-29T03:22:08.574Z,7.40
2022-12-29T03:24:42.432Z,7.40
2022-12-29T03:27:14.390Z,7.40
2022-12-29T03:29:47.665Z,7.40
2022-12-29T03:32:16.337Z,7.40
2022-12-29T03:34:46.062Z,7.40
2022-12-29T03:37:16.898Z,7.40
2022-12-29T03:39:46.027Z,7.40
2022-12-29T03:42:20.261Z,7.40
2022-12-29T03:44:47.674Z,7.40
2022-12-29T03:47:15.895Z,7.50
2022-12-29T03:49:43.002Z,7.50
2022-12-29T03:52:10.031Z,7.50
2022-12-29T03:54:36.976Z,7.60
2022-12-29T03:57:03.918Z,7.60
2022-12-29T03:59:30.900Z,7.60
2022-12-29T04:01:57.955Z,7.50
2022-12-29T04:04:24.983Z,7.50
2022-12-29T04:06:51.934Z,7.50
2022-12-29T04:09:18.850Z,7.50
2022-12-29T04:11:45.786Z,7.50
2022-12-29T04:14:12.791Z,7.50
2022-12-29T04:16:40.051Z,7.50
2022-12-29T04:19:08.389Z,7.50
2022-12-29T04:21:35.528Z,7.50
2022-12-29T04:24:02.688Z,7.40
2022-12-29T04:26:29.671Z,7.30
2022-12-29T04:28:56.686Z,7.40
2022-12-29T04:31:23.667Z,7.40
2022-12-29T04:33:50.672Z,7.30
2022-12-29T04:36:17.586Z,7.30
2022-12-29T04:38:45.839Z,7.40
2022-12-29T04:41:12.797Z,7.30
2022-12-29T04:43:39.770Z,7.20
2022-12-29T04:46:07.121Z,7.20
2022-12-29T04:48:34.499Z,7.10
2022-12-29T04:51:01.637Z,7.00
2022-12-29T04:53:28.702Z,7.00
2022-12-29T04:55:55.678Z,6.90
2022-12-29T04:58:23.510Z,6.80
2022-12-29T05:00:52.023Z,6.90
2022-12-29T05:03:19.760Z,6.80
2022-12-29T05:05:47.876Z,6.80
2022-12-29T05:08:14.844Z,6.80
2022-12-29T05:10:44.924Z,6.80
2022-12-29T05:13:12.108Z,6.90
2022-12-29T05:15:39.321Z,6.90
2022-12-29T05:18:06.261Z,6.90
2022-12-29T05:20:33.319Z,6.90
2022-12-29T05:23:00.493Z,6.70
2022-12-29T05:25:28.512Z,6.60
2022-12-29T05:27:55.415Z,6.50
2022-12-29T05:30:22.418Z,6.40
2022-12-29T05:32:49.320Z,6.40
2022-12-29T05:35:16.342Z,6.30
2022-12-29T05:37:43.245Z,6.20
2022-12-29T05:40:10.619Z,6.20
2022-12-29T05:42:37.580Z,6.10
2022-12-29T05:45:05.116Z,6.10
2022-12-29T05:47:32.008Z,6.10
2022-12-29T05:50:00.155Z,6.10
2022-12-29T05:52:27.096Z,6.10
2022-12-29T05:54:54.073Z,6.20
2022-12-29T05:57:20.986Z,6.30
2022-12-29T05:59:47.955Z,6.30
2022-12-29T06:02:14.993Z,6.40
2022-12-29T06:04:42.098Z,6.50
2022-12-29T06:07:09.078Z,6.40
2022-12-29T06:09:36.007Z,6.50
2022-12-29T06:12:02.969Z,6.50
2022-12-29T06:14:29.845Z,6.40
2022-12-29T06:16:56.904Z,6.30
2022-12-29T06:19:23.800Z,6.40
2022-12-29T06:21:50.727Z,6.30
2022-12-29T06:24:17.697Z,6.40
2022-12-29T06:26:45.064Z,6.50
2022-12-29T06:29:12.414Z,6.40
2022-12-29T06:31:39.412Z,6.50
2022-12-29T06:34:08.532Z,6.40
2022-12-29T06:36:35.886Z,6.30
2022-12-29T06:39:02.856Z,6.10
2022-12-29T06:41:32.456Z,6.10
2022-12-29T06:44:00.638Z,6.10
2022-12-29T06:46:27.633Z,6.10
2022-12-29T06:48:54.699Z,6.10
2022-12-29T06:51:21.617Z,6.10
2022-12-29T06:53:48.643Z,6.10
2022-12-29T06:56:15.542Z,6.10
2022-12-29T06:58:42.508Z,6.20
2022-12-29T07:01:09.497Z,6.20
2022-12-29T07:03:36.602Z,6.30
2022-12-29T07:06:03.904Z,6.40
2022-12-29T07:08:30.803Z,6.50
2022-12-29T07:10:59.026Z,6.60
2022-12-29T07:13:25.944Z,6.70
2022-12-29T07:15:53.017Z,6.70
2022-12-29T07:18:19.967Z,6.80
2022-12-29T07:20:47.013Z,6.80
2022-12-29T07:23:13.918Z,6.70
2022-12-29T07:25:42.430Z,6.70
2022-12-29T07:28:09.394Z,6.70
2022-12-29T07:30:39.281Z,6.70
2022-12-29T07:33:06.298Z,6.60
2022-12-29T07:35:35.600Z,6.60
2022-12-29T07:38:02.521Z,6.60
2022-12-29T07:40:29.445Z,6.70
2022-12-29T07:42:56.328Z,6.70
2022-12-29T07:45:23.254Z,6.80
2022-12-29T07:47:50.834Z,6.80
2022-12-29T07:50:18.268Z,6.90
2022-12-29T07:52:45.892Z,6.90
2022-12-29T07:55:12.849Z,6.90
2022-12-29T07:57:39.765Z,7.00
2022-12-29T08:00:07.371Z,7.00
2022-12-29T08:02:34.692Z,7.00
2022-12-29T08:05:01.640Z,7.00
2022-12-29T08:07:28.671Z,7.00
2022-12-29T08:09:55.682Z,7.10
2022-12-29T08:12:22.713Z,7.10
2022-12-29T08:14:50.379Z,7.10
2022-12-29T08:17:17.440Z,7.10
2022-12-29T08:19:44.348Z,7.10
2022-12-29T08:22:11.329Z,7.10
2022-12-29T08:24:38.242Z,7.10
2022-12-29T08:27:14.620Z,7.10
2022-12-29T08:29:46.885Z,7.20
2022-12-29T08:32:14.078Z,7.20
2022-12-29T08:34:41.105Z,7.30
2022-12-29T08:37:08.128Z,7.40
2022-12-29T08:39:35.528Z,7.50
2022-12-29T08:42:02.575Z,7.60
2022-12-29T08:44:29.469Z,7.60
2022-12-29T08:46:56.432Z,7.70
2022-12-29T08:49:23.448Z,7.90
2022-12-29T08:51:51.178Z,8.00
2022-12-29T08:54:18.163Z,8.10
2022-12-29T08:56:45.160Z,8.10
2022-12-29T08:59:12.164Z,8.10
2022-12-29T09:01:41.821Z,8.10
2022-12-29T09:04:17.997Z,8.20
2022-12-29T09:06:46.498Z,8.30
2022-12-29T09:09:13.807Z,8.50
2022-12-29T09:11:40.822Z,8.60
2022-12-29T09:14:08.095Z,8.70
2022-12-29T09:16:35.577Z,8.70
2022-12-29T09:19:03.616Z,8.60
2022-12-29T09:21:30.787Z,8.60
2022-12-29T09:23:57.889Z,8.50
2022-12-29T09:26:24.939Z,8.60
2022-12-29T09:28:51.941Z,8.70
2022-12-29T09:31:18.974Z,8.70
2022-12-29T09:33:45.946Z,8.80
2022-12-29T09:36:13.274Z,8.80
2022-12-29T09:38:40.250Z,8.90
2022-12-29T09:41:13.236Z,9.20
2022-12-29T09:43:47.515Z,9.30
2022-12-29T09:46:14.626Z,9.40
2022-12-29T09:48:45.414Z,9.30
2022-12-29T09:51:17.315Z,9.30
2022-12-29T09:53:48.077Z,9.30
2022-12-29T09:56:22.085Z,9.30
2022-12-29T09:58:55.553Z,9.20
2022-12-29T10:01:42.629Z,9.30
2022-12-29T10:04:10.037Z,9.30
2022-12-29T10:06:50.172Z,9.20
2022-12-29T10:10:10.045Z,9.20
2022-12-29T10:13:17.955Z,9.20
2022-12-29T10:16:06.138Z,9.20
2022-12-29T10:19:00.369Z,9.20
2022-12-29T10:21:45.881Z,9.20
2022-12-29T10:24:13.942Z,9.10
2022-12-29T10:26:43.753Z,9.20
2022-12-29T10:29:34.939Z,9.20
2022-12-29T10:32:04.373Z,9.20
2022-12-29T10:34:38.372Z,9.20
2022-12-29T10:37:33.776Z,9.30
2022-12-29T10:40:04.128Z,9.30
2022-12-29T10:42:38.714Z,9.40
2022-12-29T10:45:06.780Z,9.50
2022-12-29T10:47:43.689Z,9.50
2022-12-29T10:50:13.586Z,9.60
2022-12-29T10:52:41.505Z,9.70
2022-12-29T10:55:20.294Z,9.80
2022-12-29T10:57:48.531Z,9.90
2022-12-29T11:00:22.333Z,10.00
2022-12-29T11:03:08.162Z,10.10
2022-12-29T11:06:03.790Z,10.10
2022-12-29T11:08:36.678Z,10.00
2022-12-29T11:11:09.526Z,9.80
2022-12-29T11:13:49.666Z,9.80
2022-12-29T11:16:33.000Z,9.80
2022-12-29T11:19:00.349Z,9.80
2022-12-29T11:21:43.571Z,9.90
2022-12-29T11:24:26.302Z,9.90
2022-12-29T11:26:58.566Z,10.00
2022-12-29T11:29:28.445Z,10.10
2022-12-29T11:31:58.658Z,10.20
2022-12-29T11:34:34.627Z,10.20
2022-12-29T11:37:16.060Z,10.30
2022-12-29T11:39:53.419Z,10.30
2022-12-29T11:42:35.366Z,10.30
2022-12-29T11:45:11.042Z,10.40
2022-12-29T11:47:38.521Z,10.40
2022-12-29T11:50:09.281Z,10.30
2022-12-29T11:52:40.634Z,10.30
2022-12-29T11:55:19.626Z,10.30
2022-12-29T11:57:46.875Z,10.20
2022-12-29T12:00:20.849Z,10.20
2022-12-29T12:03:11.693Z,10.20
2022-12-29T12:05:55.619Z,10.10
2022-12-29T12:08:42.666Z,10.10
2022-12-29T12:11:21.606Z,10.20
2022-12-29T12:14:06.391Z,10.20
2022-12-29T12:16:40.881Z,10.30
2022-12-29T12:19:28.271Z,10.30
2022-12-29T12:22:19.759Z,10.30
2022-12-29T12:24:53.103Z,10.30
2022-12-29T12:27:26.519Z,10.30
2022-12-29T12:29:53.426Z,10.30
2022-12-29T12:32:45.252Z,10.30
2022-12-29T12:35:34.919Z,10.20
2022-12-29T12:38:38.712Z,10.20
2022-12-29T12:41:10.700Z,10.30
2022-12-29T12:43:42.070Z,10.40
2022-12-29T12:50:07.928Z,10.60
2022-12-29T12:56:12.410Z,10.70
2022-12-29T12:59:10.168Z,10.80
2022-12-29T13:02:08.825Z,10.80
2022-12-29T13:05:26.239Z,10.80
2022-12-29T13:08:11.863Z,10.80
2022-12-29T13:14:03.890Z,10.70
2022-12-29T13:16:42.374Z,10.70
2022-12-29T13:19:29.854Z,10.60
2022-12-29T13:25:57.186Z,10.60
2022-12-29T13:28:44.282Z,10.50
2022-12-29T13:31:21.991Z,10.60
2022-12-29T13:34:23.720Z,10.50
2022-12-29T13:36:55.652Z,10.50
2022-12-29T13:39:38.405Z,10.40
2022-12-29T13:42:06.471Z,10.40
2022-12-29T13:44:38.493Z,10.30
2022-12-29T13:47:36.968Z,10.40
2022-12-29T13:50:07.994Z,10.30
2022-12-29T13:52:43.230Z,10.30
2022-12-29T13:55:54.331Z,10.30
2022-12-29T13:58:49.556Z,10.30
2022-12-29T14:01:16.621Z,10.30
2022-12-29T14:04:01.660Z,10.20
2022-12-29T14:06:41.934Z,10.20
2022-12-29T14:10:02.232Z,10.10
2022-12-29T14:12:45.012Z,10.10
2022-12-29T14:15:11.941Z,10.10
2022-12-29T14:17:41.241Z,10.00
2022-12-29T14:20:47.460Z,10.00
2022-12-29T14:23:14.437Z,9.90
2022-12-29T14:29:31.258Z,9.80
2022-12-29T14:31:58.284Z,9.70
2022-12-29T14:34:51.829Z,9.70
2022-12-29T14:37:36.400Z,9.70
2022-12-29T14:40:03.327Z,9.70
2022-12-29T14:42:31.881Z,9.60
2022-12-29T14:46:01.964Z,9.60
2022-12-29T14:49:17.514Z,9.60
2022-12-29T14:51:44.677Z,9.60
2022-12-29T14:54:39.441Z,9.70
2022-12-29T14:57:22.497Z,9.70
2022-12-29T14:59:53.924Z,9.80
2022-12-29T15:02:25.043Z,9.90
2022-12-29T15:05:44.067Z,9.90
2022-12-29T15:08:13.306Z,10.00
2022-12-29T15:11:14.719Z,9.90
2022-12-29T15:17:30.371Z,9.90
2022-12-29T15:19:59.819Z,9.80
2022-12-29T15:22:27.533Z,9.80
2022-12-29T15:24:56.251Z,9.70
2022-12-29T15:27:27.420Z,9.70
2022-12-29T15:30:02.220Z,9.60
2022-12-29T15:32:40.361Z,9.60
2022-12-29T15:35:38.552Z,9.60
2022-12-29T15:41:57.522Z,9.40
2022-12-29T15:45:09.852Z,9.40
2022-12-29T15:47:38.516Z,9.40
2022-12-29T15:50:10.034Z,9.30
2022-12-29T15:56:18.021Z,9.30
2022-12-29T15:59:31.760Z,9.20
2022-12-29T16:02:00.557Z,9.30
2022-12-29T16:04:31.115Z,9.20
2022-12-29T16:07:01.269Z,9.10
2022-12-29T16:09:43.656Z,9.10
2022-12-29T16:12:30.667Z,9.10
2022-12-29T16:15:00.924Z,9.20
2022-12-29T16:18:11.671Z,9.20
2022-12-29T16:20:43.215Z,9.20
2022-12-29T16:23:23.008Z,9.20
2022-12-29T16:25:50.083Z,9.20
2022-12-29T16:28:23.481Z,9.20
2022-12-29T16:31:15.286Z,9.20
2022-12-29T16:33:55.445Z,9.20
2022-12-29T16:36:29.794Z,9.30
2022-12-29T16:39:42.777Z,9.30
2022-12-29T16:42:38.914Z,9.30
2022-12-29T16:45:21.073Z,9.30
2022-12-29T16:48:06.456Z,9.40
2022-12-29T16:50:38.559Z,9.40
2022-12-29T16:53:08.228Z,9.50
2022-12-29T16:55:35.725Z,9.50
2022-12-29T16:58:02.875Z,9.60
2022-12-29T17:00:37.717Z,9.40
2022-12-29T17:03:05.212Z,9.30
2022-12-29T17:05:32.235Z,9.00
2022-12-29T17:08:02.127Z,8.90
2022-12-29T17:10:49.657Z,8.80
2022-12-29T17:13:16.543Z,8.70
2022-12-29T17:15:43.684Z,8.60
2022-12-29T17:18:14.087Z,8.50
2022-12-29T17:20:42.367Z,8.40
2022-12-29T17:23:22.866Z,8.40
2022-12-29T17:25:55.106Z,8.30
2022-12-29T17:28:25.761Z,8.20
2022-12-29T17:31:02.966Z,8.20
2022-12-29T17:33:35.750Z,8.10
2022-12-29T17:36:02.834Z,8.10
2022-12-29T17:38:32.494Z,8.10
2022-12-29T17:41:00.632Z,8.10
2022-12-29T17:43:32.971Z,8.10
2022-12-29T17:46:05.541Z,8.00
2022-12-29T17:48:32.507Z,8.00
2022-12-29T17:50:59.743Z,8.00
2022-12-29T17:53:29.658Z,8.00
2022-12-29T17:55:56.716Z,8.00
2022-12-29T17:58:31.766Z,7.90
2022-12-29T18:01:00.467Z,8.00
2022-12-29T18:03:31.322Z,8.00
2022-12-29T18:05:59.085Z,8.00
2022-12-29T18:08:26.108Z,8.00
2022-12-29T18:10:55.187Z,8.00
2022-12-29T18:13:33.705Z,8.00
2022-12-29T18:16:06.496Z,8.00
2022-12-29T18:18:33.445Z,7.90
2022-12-29T18:21:00.693Z,7.90
2022-12-29T18:23:32.834Z,7.90
2022-12-29T18:26:03.666Z,7.90
2022-12-29T18:28:31.112Z,7.90
2022-12-29T18:31:01.186Z,8.00
2022-12-29T18:33:29.208Z,7.90
2022-12-29T18:36:00.735Z,7.90
2022-12-29T18:38:28.471Z,7.90
2022-12-29T18:40:56.629Z,7.90
2022-12-29T18:43:23.910Z,7.80
2022-12-29T18:45:51.095Z,7.80
2022-12-29T18:48:19.786Z,7.80
2022-12-29T18:50:49.176Z,7.80
2022-12-29T18:53:18.192Z,7.80
2022-12-29T18:55:45.552Z,7.80
2022-12-29T18:58:12.779Z,7.80
2022-12-29T19:00:40.307Z,7.80
2022-12-29T19:03:08.020Z,7.90
2022-12-29T19:05:39.649Z,7.90
2022-12-29T19:08:07.331Z,7.80
2022-12-29T19:10:34.906Z,7.80
2022-12-29T19:13:02.400Z,7.80
2022-12-29T19:15:38.017Z,7.80
2022-12-29T19:18:42.382Z,7.70
2022-12-29T19:20:56.999Z,7.70
2022-12-29T19:23:26.364Z,7.70
2022-12-29T19:25:54.811Z,7.70
2022-12-29T19:28:25.187Z,7.70
2022-12-29T19:30:56.995Z,7.70
2022-12-29T19:33:24.331Z,7.80
2022-12-29T19:35:52.390Z,7.80
2022-12-29T19:38:19.917Z,7.80
2022-12-29T19:40:50.678Z,7.80
2022-12-29T19:43:18.129Z,7.80
2022-12-29T19:45:45.862Z,7.90
2022-12-29T19:48:16.076Z,7.90
2022-12-29T19:50:43.970Z,7.90
2022-12-29T19:53:11.575Z,7.80
2022-12-29T19:55:45.159Z,7.80
2022-12-29T19:58:12.629Z,7.70
2022-12-29T20:00:41.262Z,7.70
2022-12-29T20:03:09.199Z,7.70
2022-12-29T20:05:36.645Z,7.60
2022-12-29T20:08:03.677Z,7.70
2022-12-29T20:10:30.870Z,7.70
2022-12-29T20:12:57.924Z,7.60
2022-12-29T20:15:24.961Z,7.60
2022-12-29T20:20:38.974Z,7.60
2022-12-29T20:23:06.181Z,7.60
2022-12-29T20:25:48.613Z,7.50
2022-12-29T20:28:16.030Z,7.50
2022-12-29T20:30:43.277Z,7.50
2022-12-29T20:33:11.520Z,7.50
2022-12-29T20:35:38.480Z,7.50
2022-12-29T20:38:05.624Z,7.40
2022-12-29T20:40:32.940Z,7.40
2022-12-29T20:42:59.879Z,7.40
2022-12-29T20:45:26.892Z,7.30
2022-12-29T20:47:54.819Z,7.30
2022-12-29T20:50:21.962Z,7.30
2022-12-29T20:52:48.945Z,7.30
2022-12-29T20:55:15.992Z,7.30
2022-12-29T20:58:22.548Z,7.30
2022-12-29T21:00:30.805Z,7.30
2022-12-29T21:02:59.352Z,7.30
2022-12-29T21:05:27.215Z,7.30
2022-12-29T21:07:54.879Z,7.20
2022-12-29T21:10:23.247Z,7.30
2022-12-29T21:12:50.233Z,7.20
2022-12-29T21:15:17.335Z,7.20
2022-12-29T21:17:44.710Z,7.20
2022-12-29T21:20:20.229Z,7.30
2022-12-29T21:22:48.372Z,7.30
2022-12-29T21:25:15.519Z,7.30
2022-12-29T21:27:45.129Z,7.30
2022-12-29T21:30:12.823Z,7.30
2022-12-29T21:32:40.780Z,7.40
2022-12-29T21:35:09.564Z,7.30
2022-12-29T21:37:36.787Z,7.40
2022-12-29T21:40:05.788Z,7.40
2022-12-29T21:42:32.836Z,7.30
2022-12-29T21:45:20.733Z,7.30
2022-12-29T21:48:07.487Z,7.30
2022-12-29T21:50:59.638Z,7.30
2022-12-29T21:53:38.040Z,7.20
2022-12-29T21:56:13.496Z,7.20
2022-12-29T21:59:00.856Z,7.20
2022-12-29T22:01:48.739Z,7.10
2022-12-29T22:04:35.929Z,7.00
2022-12-29T22:07:22.371Z,7.10
2022-12-29T22:10:07.800Z,7.00
2022-12-29T22:12:53.622Z,6.90
2022-12-29T22:15:20.753Z,6.90
2022-12-29T22:17:49.664Z,6.80
2022-12-29T22:20:18.559Z,6.80
2022-12-29T22:22:45.616Z,6.80
2022-12-29T22:25:13.328Z,6.80
2022-12-29T22:27:40.750Z,6.80
2022-12-29T22:30:08.771Z,6.70
2022-12-29T22:32:35.978Z,6.60
2022-12-29T22:35:07.826Z,6.60
2022-12-29T22:37:36.848Z,6.60
2022-12-29T22:40:05.214Z,6.50
2022-12-29T22:42:32.451Z,6.50
2022-12-29T22:44:59.459Z,6.50
2022-12-29T22:47:26.417Z,6.40
2022-12-29T22:49:53.436Z,6.50
2022-12-29T22:52:20.457Z,6.40
2022-12-29T22:54:47.410Z,6.40
2022-12-29T22:57:14.502Z,6.40
2022-12-29T22:59:41.533Z,6.40
2022-12-29T23:02:08.508Z,6.40
2022-12-29T23:05:07.146Z,6.40
2022-12-29T23:07:24.142Z,6.40
2022-12-29T23:09:51.150Z,6.30
2022-12-29T23:12:18.089Z,6.30
2022-12-29T23:14:45.115Z,6.40
2022-12-29T23:17:12.030Z,6.30
2022-12-29T23:19:39.014Z,6.40
2022-12-29T23:22:05.924Z,6.30
2022-12-29T23:24:32.903Z,6.30
2022-12-29T23:26:59.839Z,6.30
2022-12-29T23:29:26.904Z,6.40
2022-12-29T23:31:53.909Z,6.30
2022-12-29T23:34:20.997Z,6.30
2022-12-29T23:36:47.964Z,6.30
2022-12-29T23:39:19.856Z,6.30
2022-12-29T23:41:47.379Z,6.30
2022-12-29T23:44:14.498Z,6.30
2022-12-29T23:46:41.865Z,6.30
2022-12-29T23:49:09.989Z,6.30
2022-12-29T23:51:37.191Z,6.30
2022-12-29T23:54:04.684Z,6.30
2022-12-29T23:56:32.069Z,6.20
2022-12-29T23:58:59.130Z,6.30
